Belmont, Michigan
Current Conditions -  °F | °C
As of 11:53 AM on Monday 22 Dec 2014 (Local Time) from KGRR Reporting Station
Broken Clouds Broken Clouds  
Wind Chill: 25°   Ceiling: 10000
Heat Index: 35°   Visibility: 7mi
Dew Point: 27°   Wind: 16mph
Humidity: 72%   Direction: 110°ESE
Pressure: 29.95"   Gusts: NA
Location:  43.08°N, 85.61°W
Report Text: KGRR 221653Z 11014KT 7SM BKN100 02/M03 A2995 RMK AO2 SLP152 T00171028
Loading
Personal Weather Stations






























Interactive Weather Map New forecast layout! Learn more

10-Day Weather Forecast

Advertisements
Track Severe Weather on mobile